Time,TemperatureF,DewpointF,PressureIn,WindDirection,WindDirectionDegrees,WindSpeedMPH,WindSpeedGustMPH,Humidity,HourlyPrecipIn,Conditions,Clouds,dailyrainin,SoftwareType,DateUTC
2013-03-06 00:01:00,41.1,32.0,29.68,NW,320,8.0,18.0,70,0.05,,,0.28,weatherlink.com 1.10,2013-03-06 05:01:00,
2013-03-06 00:16:00,40.7,31.0,29.69,West,280,5.0,17.0,68,0.05,,,0.29,weatherlink.com 1.10,2013-03-06 05:16:00,
2013-03-06 00:31:00,40.4,29.0,29.68,WSW,246,9.0,17.0,63,0.05,,,0.30,weatherlink.com 1.10,2013-03-06 05:31:00,
2013-03-06 00:46:00,40.0,29.0,29.69,WNW,293,7.0,22.0,65,0.05,,,0.31,weatherlink.com 1.10,2013-03-06 05:46:00,
2013-03-06 01:01:00,39.4,29.0,29.69,WNW,300,5.0,21.0,67,0.05,,,0.01,weatherlink.com 1.10,2013-03-06 06:01:00,
2013-03-06 01:17:00,39.0,28.0,29.70,NNW,341,9.0,18.0,65,0.05,,,0.02,weatherlink.com 1.10,2013-03-06 06:17:00,
2013-03-06 01:32:00,38.6,27.0,29.71,NW,315,2.0,8.0,64,0.05,,,0.03,weatherlink.com 1.10,2013-03-06 06:32:00,
2013-03-06 01:47:00,38.6,27.0,29.72,West,275,22.0,24.0,64,0.05,,,0.04,weatherlink.com 1.10,2013-03-06 06:47:00,
2013-03-06 02:17:00,37.9,26.0,29.72,NW,309,8.0,19.0,63,0.04,,,0.06,weatherlink.com 1.10,2013-03-06 07:17:00,
2013-03-06 02:32:00,37.4,25.0,29.72,WNW,290,13.0,18.0,62,0.04,,,0.07,weatherlink.com 1.10,2013-03-06 07:32:00,
2013-03-06 02:47:00,36.9,25.0,29.72,West,274,7.0,16.0,62,0.04,,,0.08,weatherlink.com 1.10,2013-03-06 07:47:00,
2013-03-06 03:02:00,36.4,25.0,29.71,West,273,6.0,11.0,63,0.04,,,0.09,weatherlink.com 1.10,2013-03-06 08:02:00,
2013-03-06 03:17:00,36.2,24.0,29.72,WNW,291,7.0,11.0,62,0.04,,,0.10,weatherlink.com 1.10,2013-03-06 08:17:00,
2013-03-06 03:32:00,36.3,24.0,29.72,WNW,301,4.0,11.0,61,0.04,,,0.11,weatherlink.com 1.10,2013-03-06 08:32:00,
2013-03-06 03:47:00,36.0,24.0,29.73,WNW,301,4.0,9.0,62,0.03,,,0.11,weatherlink.com 1.10,2013-03-06 08:47:00,
2013-03-06 04:02:00,35.5,23.0,29.73,NNW,330,11.0,15.0,61,0.03,,,0.12,weatherlink.com 1.10,2013-03-06 09:02:00,
2013-03-06 04:17:00,35.3,22.0,29.74,WNW,293,11.0,23.0,59,0.03,,,0.13,weatherlink.com 1.10,2013-03-06 09:17:00,
2013-03-06 04:32:00,35.1,21.0,29.74,West,275,6.0,15.0,58,0.03,,,0.14,weatherlink.com 1.10,2013-03-06 09:32:00,
2013-03-06 04:47:00,34.6,22.0,29.74,WNW,289,8.0,12.0,60,0.02,,,0.14,weatherlink.com 1.10,2013-03-06 09:47:00,
2013-03-06 05:02:00,33.9,22.0,29.74,WNW,295,3.0,9.0,63,0.03,,,0.15,weatherlink.com 1.10,2013-03-06 10:02:00,
2013-03-06 05:17:00,33.6,22.0,29.75,WSW,256,4.0,8.0,63,0.02,,,0.15,weatherlink.com 1.10,2013-03-06 10:17:00,
2013-03-06 05:32:00,33.3,22.0,29.75,NW,312,3.0,12.0,63,0.02,,,0.16,weatherlink.com 1.10,2013-03-06 10:32:00,
2013-03-06 05:47:00,33.3,21.0,29.76,WNW,297,11.0,21.0,61,0.02,,,0.16,weatherlink.com 1.10,2013-03-06 10:47:00,
2013-03-06 06:02:00,33.2,21.0,29.77,WNW,282,11.0,26.0,60,0.02,,,0.17,weatherlink.com 1.10,2013-03-06 11:02:00,
2013-03-06 06:17:00,32.8,21.0,29.77,West,270,15.0,25.0,61,0.02,,,0.17,weatherlink.com 1.10,2013-03-06 11:17:00,
2013-03-06 06:33:00,32.6,21.0,29.77,North,354,9.0,23.0,62,0.01,,,0.17,weatherlink.com 1.10,2013-03-06 11:33:00,
2013-03-06 06:48:00,32.6,21.0,29.77,WNW,292,12.0,21.0,63,0.01,,,0.17,weatherlink.com 1.10,2013-03-06 11:48:00,
2013-03-06 07:03:00,32.6,22.0,29.76,WNW,286,12.0,20.0,64,0.00,,,0.17,weatherlink.com 1.10,2013-03-06 12:03:00,
2013-03-06 07:18:00,32.8,21.0,29.77,North,349,11.0,21.0,62,0.00,,,0.17,weatherlink.com 1.10,2013-03-06 12:18:00,
2013-03-06 07:33:00,33.5,21.0,29.77,NNW,342,6.0,23.0,60,0.00,,,0.17,weatherlink.com 1.10,2013-03-06 12:33:00,
2013-03-06 07:48:00,34.4,20.0,29.78,NW,324,21.0,24.0,57,0.00,,,0.17,weatherlink.com 1.10,2013-03-06 12:48:00,
2013-03-06 08:03:00,35.0,21.0,29.79,NW,323,12.0,19.0,56,0.01,,,0.18,weatherlink.com 1.10,2013-03-06 13:03:00,
2013-03-06 08:18:00,35.3,21.0,29.79,NNW,330,16.0,24.0,56,0.01,,,0.18,weatherlink.com 1.10,2013-03-06 13:18:00,
2013-03-06 08:33:00,35.8,21.0,29.79,NW,324,12.0,23.0,55,0.01,,,0.18,weatherlink.com 1.10,2013-03-06 13:33:00,
2013-03-06 08:48:00,36.5,22.0,29.80,NNW,341,8.0,16.0,55,0.00,,,0.18,weatherlink.com 1.10,2013-03-06 13:48:00,
2013-03-06 09:03:00,37.0,22.0,29.80,WNW,292,9.0,19.0,54,0.00,,,0.18,weatherlink.com 1.10,2013-03-06 14:03:00,
2013-03-06 09:18:00,37.8,22.0,29.80,NW,308,9.0,21.0,53,0.00,,,0.18,weatherlink.com 1.10,2013-03-06 14:18:00,
2013-03-06 09:33:00,38.3,22.0,29.80,West,281,7.0,26.0,52,0.00,,,0.18,weatherlink.com 1.10,2013-03-06 14:33:00,
2013-03-06 09:48:00,39.1,23.0,29.82,WNW,287,9.0,16.0,52,0.00,,,0.18,weatherlink.com 1.10,2013-03-06 14:48:00,
2013-03-06 10:03:00,39.9,22.0,29.83,WNW,299,14.0,22.0,50,0.00,,,0.18,weatherlink.com 1.10,2013-03-06 15:03:00,
2013-03-06 10:18:00,39.9,22.0,29.84,WNW,291,12.0,20.0,50,0.01,,,0.19,weatherlink.com 1.10,2013-03-06 15:18:00,
2013-03-06 10:33:00,40.7,23.0,29.84,NW,320,13.0,22.0,49,0.01,,,0.19,weatherlink.com 1.10,2013-03-06 15:33:00,
2013-03-06 10:48:00,41.7,24.0,29.86,WNW,293,10.0,14.0,49,0.01,,,0.19,weatherlink.com 1.10,2013-03-06 15:48:00,
2013-03-06 11:03:00,41.3,24.0,29.87,WNW,300,5.0,18.0,50,0.01,,,0.19,weatherlink.com 1.10,2013-03-06 16:03:00,
2013-03-06 11:18:00,42.2,24.0,29.88,NW,323,7.0,17.0,48,0.00,,,0.19,weatherlink.com 1.10,2013-03-06 16:18:00,
2013-03-06 11:34:00,42.8,24.0,29.88,WNW,287,11.0,18.0,47,0.00,,,0.19,weatherlink.com 1.10,2013-03-06 16:34:00,
2013-03-06 11:48:00,43.0,25.0,29.88,West,280,7.0,18.0,49,0.00,,,0.19,weatherlink.com 1.10,2013-03-06 16:48:00,
2013-03-06 12:03:00,43.3,25.0,29.88,NW,320,7.0,20.0,49,0.00,,,0.19,weatherlink.com 1.10,2013-03-06 17:03:00,
2013-03-06 12:18:00,44.1,25.0,29.88,NW,305,15.0,21.0,48,0.00,,,0.19,weatherlink.com 1.10,2013-03-06 17:18:00,
2013-03-06 12:33:00,42.2,25.0,29.88,West,280,11.0,22.0,50,0.00,,,0.19,weatherlink.com 1.10,2013-03-06 17:33:00,
2013-03-06 12:48:00,43.4,25.0,29.88,West,260,17.0,21.0,49,0.00,,,0.19,weatherlink.com 1.10,2013-03-06 17:48:00,
2013-03-06 13:03:00,43.9,25.0,29.89,NNW,342,13.0,20.0,48,0.00,,,0.19,weatherlink.com 1.10,2013-03-06 18:03:00,
2013-03-06 13:18:00,44.4,26.0,29.89,WNW,302,9.0,20.0,49,0.00,,,0.19,weatherlink.com 1.10,2013-03-06 18:18:00,
2013-03-06 13:33:00,44.7,26.0,29.90,WNW,294,14.0,20.0,49,0.00,,,0.19,weatherlink.com 1.10,2013-03-06 18:33:00,
2013-03-06 13:48:00,44.5,28.0,29.90,WNW,287,7.0,16.0,52,0.00,,,0.19,weatherlink.com 1.10,2013-03-06 18:48:00,
2013-03-06 14:04:00,45.6,28.0,29.91,NW,320,11.0,18.0,50,0.00,,,0.19,weatherlink.com 1.10,2013-03-06 19:04:00,
2013-03-06 14:19:00,42.9,25.0,29.91,NW,308,14.0,19.0,50,0.00,,,0.19,weatherlink.com 1.10,2013-03-06 19:19:00,
2013-03-06 14:34:00,44.3,26.0,29.92,WNW,293,8.0,18.0,49,0.00,,,0.19,weatherlink.com 1.10,2013-03-06 19:34:00,
2013-03-06 14:49:00,44.2,26.0,29.93,WNW,296,20.0,20.0,49,0.00,,,0.19,weatherlink.com 1.10,2013-03-06 19:49:00,
2013-03-06 15:04:00,44.1,26.0,29.93,WNW,295,10.0,19.0,49,0.00,,,0.19,weatherlink.com 1.10,2013-03-06 20:04:00,
2013-03-06 15:19:00,44.1,26.0,29.93,NNW,332,11.0,19.0,49,0.00,,,0.19,weatherlink.com 1.10,2013-03-06 20:19:00,
2013-03-06 15:34:00,43.8,26.0,29.95,NW,308,10.0,17.0,50,0.00,,,0.19,weatherlink.com 1.10,2013-03-06 20:34:00,
2013-03-06 15:49:00,44.4,27.0,29.96,NW,308,14.0,18.0,51,0.00,,,0.19,weatherlink.com 1.10,2013-03-06 20:49:00,
2013-03-06 16:04:00,43.8,27.0,29.96,WNW,303,7.0,20.0,51,0.00,,,0.19,weatherlink.com 1.10,2013-03-06 21:04:00,
2013-03-06 16:19:00,44.6,27.0,29.97,NW,311,7.0,14.0,50,0.00,,,0.19,weatherlink.com 1.10,2013-03-06 21:19:00,
2013-03-06 16:34:00,44.8,27.0,29.98,NNE,31,4.0,9.0,50,0.00,,,0.19,weatherlink.com 1.10,2013-03-06 21:34:00,
2013-03-06 16:49:00,45.3,27.0,29.99,NW,318,5.0,10.0,50,0.00,,,0.19,weatherlink.com 1.10,2013-03-06 21:49:00,
2013-03-06 17:04:00,45.4,28.0,30.00,NW,312,5.0,8.0,50,0.00,,,0.19,weatherlink.com 1.10,2013-03-06 22:04:00,
2013-03-06 17:19:00,45.0,27.0,30.01,NNE,14,0.0,10.0,49,0.00,,,0.19,weatherlink.com 1.10,2013-03-06 22:19:00,
2013-03-06 17:34:00,43.3,27.0,30.02,ENE,78,3.0,8.0,52,0.00,,,0.19,weatherlink.com 1.10,2013-03-06 22:34:00,
2013-03-06 17:49:00,42.3,27.0,30.03,North,359,1.0,9.0,54,0.00,,,0.19,weatherlink.com 1.10,2013-03-06 22:49:00,
2013-03-06 18:04:00,41.2,26.0,30.04,SE,135,2.0,9.0,56,0.00,,,0.19,weatherlink.com 1.10,2013-03-06 23:04:00,
2013-03-06 18:19:00,39.8,26.0,30.06,NNE,15,1.0,4.0,58,0.00,,,0.19,weatherlink.com 1.10,2013-03-06 23:19:00,
2013-03-06 18:34:00,38.9,26.0,30.07,NW,315,0.0,4.0,60,0.00,,,0.19,weatherlink.com 1.10,2013-03-06 23:34:00,
2013-03-06 18:49:00,38.2,26.0,30.08,NNE,24,0.0,3.0,61,0.00,,,0.19,weatherlink.com 1.10,2013-03-06 23:49:00,
2013-03-06 19:04:00,37.6,25.0,30.08,East,88,3.0,7.0,62,0.00,,,0.19,weatherlink.com 1.10,2013-03-07 00:04:00,
2013-03-06 19:19:00,36.9,25.0,30.08,NNE,14,4.0,5.0,63,0.00,,,0.19,weatherlink.com 1.10,2013-03-07 00:19:00,
2013-03-06 19:34:00,36.3,25.0,30.09,NE,37,0.0,5.0,65,0.00,,,0.19,weatherlink.com 1.10,2013-03-07 00:34:00,
2013-03-06 19:49:00,35.8,25.0,30.09,NNW,348,0.0,4.0,66,0.00,,,0.19,weatherlink.com 1.10,2013-03-07 00:49:00,
2013-03-06 20:04:00,35.4,25.0,30.09,NNW,339,1.0,2.0,67,0.00,,,0.19,weatherlink.com 1.10,2013-03-07 01:04:00,
2013-03-06 20:19:00,34.4,25.0,30.08,North,354,2.0,2.0,69,0.00,,,0.19,weatherlink.com 1.10,2013-03-07 01:19:00,
2013-03-06 20:34:00,34.3,25.0,30.09,NNE,20,2.0,5.0,69,0.00,,,0.19,weatherlink.com 1.10,2013-03-07 01:34:00,
2013-03-06 20:49:00,34.4,25.0,30.09,ENE,68,1.0,3.0,69,0.00,,,0.19,weatherlink.com 1.10,2013-03-07 01:49:00,
2013-03-06 21:04:00,33.3,25.0,30.10,East,79,1.0,3.0,72,0.00,,,0.19,weatherlink.com 1.10,2013-03-07 02:04:00,
2013-03-06 21:19:00,32.2,25.0,30.10,SE,129,2.0,5.0,74,0.00,,,0.19,weatherlink.com 1.10,2013-03-07 02:19:00,
2013-03-06 21:34:00,32.4,25.0,30.11,ENE,62,0.0,3.0,74,0.00,,,0.19,weatherlink.com 1.10,2013-03-07 02:34:00,
2013-03-06 21:49:00,32.9,25.0,30.11,NNE,28,0.0,4.0,73,0.00,,,0.19,weatherlink.com 1.10,2013-03-07 02:49:00,
2013-03-06 22:04:00,33.0,25.0,30.11,NNE,28,0.0,2.0,72,0.00,,,0.19,weatherlink.com 1.10,2013-03-07 03:04:00,
2013-03-06 22:19:00,33.0,25.0,30.11,East,91,2.0,5.0,72,0.00,,,0.19,weatherlink.com 1.10,2013-03-07 03:19:00,
2013-03-06 22:34:00,33.0,25.0,30.12,SE,138,0.0,4.0,73,0.00,,,0.19,weatherlink.com 1.10,2013-03-07 03:34:00,
2013-03-06 22:49:00,32.5,25.0,30.13,SE,138,0.0,2.0,74,0.00,,,0.19,weatherlink.com 1.10,2013-03-07 03:49:00,
2013-03-06 23:04:00,32.9,25.0,30.13,SE,138,2.0,3.0,72,0.00,,,0.19,weatherlink.com 1.10,2013-03-07 04:04:00,
2013-03-06 23:19:00,32.7,25.0,30.14,NNE,25,3.0,4.0,73,0.00,,,0.19,weatherlink.com 1.10,2013-03-07 04:19:00,
2013-03-06 23:35:00,32.6,25.0,30.13,NNE,33,1.0,3.0,73,0.00,,,0.19,weatherlink.com 1.10,2013-03-07 04:35:00,
2013-03-06 23:50:00,32.1,25.0,30.13,NNE,33,0.0,1.0,74,0.00,,,0.19,weatherlink.com 1.10,2013-03-07 04:50:00,